Weather reports worldwide

Advertisment
Berlin/Tempelhof, Germany (10384): temperature & dewpoint: 15.06.2018 23:00:00 - 21.06.2018 23:00:00 (CEST)Berlin/Tempelhof, Germany (10384): temperature 5cm & temperature -5cm: 15.06.2018 23:00:00 - 21.06.2018 23:00:00 (CEST)Berlin/Tempelhof, Germany (10384): temperature -20cm & temperature -100cm: 15.06.2018 23:00:00 - 21.06.2018 23:00:00 (CEST)Berlin/Tempelhof, Germany (10384): wind speed & gusts: 15.06.2018 23:00:00 - 21.06.2018 23:00:00 (CEST)Berlin/Tempelhof, Germany (10384): wind direction: 15.06.2018 23:00:00 - 21.06.2018 23:00:00 (CEST)Berlin/Tempelhof, Germany (10384): reduced air pressure: 15.06.2018 23:00:00 - 21.06.2018 23:00:00 (CEST)Berlin/Tempelhof, Germany (10384): sunshine duration: 15.06.2018 23:00:00 - 21.06.2018 23:00:00 (CEST)Berlin/Tempelhof, Germany (10384): precipitation: 15.06.2018 23:00:00 - 21.06.2018 23:00:00 (CEST)
Date & Time tt [°C] td [°C] tt 5cm [°C] tt -5cm [°C] tt -20cm [°C] tt -100cm [°C] ff [km/h] ff [kn] fx [km/h] fx [kn] dd ppp [hPa] sd [min] rr [mm]
21.06.2018 23:00:00 12,5 5,2 10,7 17,5 20,8 16,7 22 12 46 25 W 1016,7 0 0,0
21.06.2018 22:00:00 13,2 4,6 11,4 18,6 21,1 16,7 27 15 61 33 WNW 1016,2 0 0,0
21.06.2018 21:00:00 14,7 4,1 13,7 19,6 21,2 16,7 28 15 49 27 W 1015,2 24 0,0
21.06.2018 20:00:00 15,6 4,5 15,2 20,7 21,4 16,7 34 18 55 30 WNW 1014,6 36 0,0
21.06.2018 19:00:00 16,9 5,1 18,7 21,9 21,5 16,7 35 19 66 36 WNW 1013,9 37 0,0
21.06.2018 18:00:00 17,3 6,8 20,7 22,6 21,6 16,7 24 13 58 31 WNW 1013,0 55 0,0
21.06.2018 17:00:00 15,7 7,4 19,4 22,4 21,7 16,7 32 17 66 36 WNW 1013,1 10 0,0
21.06.2018 16:00:00 15,4 12,0 16,9 22,8 21,8 16,7 17 9 32 18 W 1012,2 11 1,0
21.06.2018 15:00:00 13,2 11,0 12,6 24,5 21,7 16,7 27 15 54 29 WNW 1012,1 8 0,1
21.06.2018 14:00:00 16,8 12,3 19,7 26,2 21,5 16,7 42 23 64 35 NW 1010,5 3 1,5
21.06.2018 13:00:00 20,1 12,5 20,9 28,1 21,2 16,7 47 25 68 37 NW 1008,3 19 0,0
21.06.2018 12:00:00 27,4 12,6 32,5 26,6 21,0 16,7 21 12 40 22 WSW 1007,2 41 0,0
21.06.2018 11:00:00 25,6 13,0 28,7 25,0 20,8 16,7 19 10 34 18 SW 1008,2 31 0,0
21.06.2018 10:00:00 25,2 13,2 32,7 22,5 20,8 16,7 15 8 24 13 WSW 1009,2 25 0,0
21.06.2018 09:00:00 23,4 14,0 25,4 21,1 20,8 16,7 11 6 21 11 SW 1010,4 32 0,0
21.06.2018 08:00:00 22,2 14,1 24,1 19,8 21,0 16,7 13 7 20 11 WSW 1011,3 57 0,0
21.06.2018 07:00:00 20,4 14,0 20,4 19,3 21,2 16,7 9 5 16 9 WSW 1011,8 60 0,0
21.06.2018 06:00:00 19,1 13,9 15,9 19,1 21,4 16,7 9 5 14 8 SW 1012,2 26 0,0
21.06.2018 05:00:00 18,3 13,9 11,8 19,4 21,7 16,7 8 4 12 6 SW 1012,9 0 0,0
21.06.2018 04:00:00 17,9 13,8 9,6 20,0 22,0 16,7 5 3 9 5 SSW 1013,4 0 0,0
21.06.2018 03:00:00 18,4 13,7 10,5 20,6 22,2 16,7 5 3 6 3 S 1014,0 0 0,0
21.06.2018 02:00:00 19,2 13,7 11,1 21,4 22,5 16,7 3 1 5 3 SSW 1014,7 0 0,0
21.06.2018 01:00:00 20,2 13,4 11,7 22,2 22,7 16,7 3 2 9 5 W 1015,2 0 0,0
21.06.2018 00:00:00 20,7 13,5 12,5 23,2 22,9 16,6 8 4 11 6 NW 1015,7 0 0,0
20.06.2018 23:00:00 22,9 13,7 13,8 24,5 23,0 16,6 5 3 8 4 WSW 1015,8 0 0,0
20.06.2018 22:00:00 24,2 13,5 15,6 26,0 23,1 16,6 6 4 13 7 WNW 1016,1 0 0,0
20.06.2018 21:00:00 26,2 13,6 23,0 27,5 23,0 16,6 9 5 19 10 WNW 1015,9 53 0,0
20.06.2018 20:00:00 27,7 13,7 28,0 28,9 22,9 16,6 13 7 21 11 NW 1016,2 60 0,0
20.06.2018 19:00:00 28,9 13,4 32,7 29,7 22,6 16,6 10 6 25 14 W 1016,7 59 0,0
20.06.2018 18:00:00 28,6 13,1 33,9 29,9 22,3 16,6 16 9 31 17 W 1017,4 40 0,0
20.06.2018 17:00:00 27,8 13,3 31,2 29,7 22,1 16,6 12 6 22 12 W 1018,3 33 0,0
20.06.2018 16:00:00 27,2 13,3 34,9 28,3 21,8 16,6 9 5 23 13 WSW 1019,0 15 0,0
20.06.2018 15:00:00 25,8 13,4 31,0 27,6 21,6 16,6 9 5 19 11 SSW 1020,0 2 0,0
20.06.2018 14:00:00 25,2 13,8 30,0 27,8 21,3 16,6 8 4 20 11 SW 1020,5 0 0,0
20.06.2018 13:00:00 24,8 14,2 32,5 27,4 21,0 16,6 9 5 21 11 SSW 1021,3 11 0,0
20.06.2018 12:00:00 23,5 14,4 31,0 25,7 20,8 16,6 11 6 21 12 SSW 1022,2 0 0,0
20.06.2018 11:00:00 22,6 14,0 30,1 23,8 20,7 16,6 9 5 20 11 S 1022,6 6 0,0
20.06.2018 10:00:00 21,3 12,7 28,7 21,6 20,7 16,6 10 6 18 10 SSE 1023,2 7 0,0
20.06.2018 09:00:00 19,5 11,5 22,7 20,6 20,8 16,6 10 5 14 8 SSE 1023,3 0 0,0
20.06.2018 08:00:00 18,6 11,3 19,3 20,2 20,9 16,6 9 5 13 7 SSE 1023,4 0 0,0
20.06.2018 07:00:00 18,4 12,1 18,8 19,8 21,0 16,6 2 1 7 4 E 1023,5 0 0,0
20.06.2018 06:00:00 17,6 11,5 16,9 19,6 21,2 16,6 7 4 9 5 NNE 1023,5 0 0,0
20.06.2018 05:00:00 17,4 12,1 15,1 19,5 21,5 16,6 5 3 12 7 NNE 1023,3 0 0,0
20.06.2018 04:00:00 16,6 13,3 9,1 20,0 21,7 16,6 5 3 9 5 NNE 1023,1 0 0,0
20.06.2018 03:00:00 17,7 13,9 11,7 20,6 21,9 16,6 6 4 18 10 NW 1023,2 0 0,0
20.06.2018 02:00:00 19,1 14,2 17,1 20,9 22,1 16,6 12 6 18 10 NNW 1023,1 0 0,0
20.06.2018 01:00:00 18,7 13,9 14,2 21,6 22,4 16,6 9 5 14 8 WNW 1022,8 0 0,0
20.06.2018 00:00:00 18,9 13,7 12,8 22,5 22,6 16,6 8 4 16 9 WNW 1022,8 0 0,0
19.06.2018 23:00:00 20,5 13,6 17,5 23,4 22,7 16,6 11 6 16 9 W 1022,5 0 0,0
19.06.2018 22:00:00 21,5 13,3 18,4 24,4 22,9 16,6 10 5 21 11 W 1022,1 0 0,0
19.06.2018 21:00:00 22,4 13,4 20,7 25,6 22,9 16,6 15 8 22 12 WNW 1021,4 36 0,0
19.06.2018 20:00:00 23,3 13,2 22,8 26,5 23,0 16,6 16 9 29 15 W 1021,4 13 0,0
19.06.2018 19:00:00 24,1 13,4 25,5 27,1 23,0 16,6 17 9 27 15 WNW 1021,4 6 0,0
19.06.2018 18:00:00 23,3 13,9 23,7 27,9 22,9 16,6 19 10 31 17 NW 1021,4 0 0,0
19.06.2018 17:00:00 23,8 12,9 24,0 29,5 22,7 16,6 21 12 30 16 WNW 1021,2 0 0,0
19.06.2018 16:00:00 25,2 12,4 28,4 30,5 22,4 16,6 21 11 35 19 W 1020,9 17 0,0
19.06.2018 15:00:00 25,7 11,5 34,7 29,2 22,1 16,6 18 10 33 18 W 1020,8 14 0,0
19.06.2018 14:00:00 23,9 10,9 26,7 29,2 21,8 16,6 19 10 36 19 W 1021,0 0 0,0
19.06.2018 13:00:00 23,7 11,1 28,7 29,7 21,4 16,6 17 9 30 16 WSW 1020,8 10 0,0
19.06.2018 12:00:00 23,9 11,2 31,2 28,1 21,1 16,5 17 9 32 17 WSW 1020,7 52 0,0
19.06.2018 11:00:00 22,8 11,7 28,0 25,5 20,9 16,5 16 9 31 17 W 1020,8 60 0,0
19.06.2018 10:00:00 21,8 11,9 27,9 22,9 20,9 16,5 19 10 29 15 W 1020,6 59 0,0
19.06.2018 09:00:00 20,4 12,3 23,7 21,3 21,0 16,5 21 11 35 19 WNW 1020,6 41 0,0
19.06.2018 08:00:00 19,4 13,5 20,2 20,7 21,1 16,5 18 10 30 16 W 1020,3 0 0,0
19.06.2018 07:00:00 18,4 14,0 18,5 20,5 21,2 16,5 10 5 27 15 W 1020,1 0 0,0
19.06.2018 06:00:00 18,4 14,2 18,0 20,4 21,4 16,5 21 12 32 17 WNW 1019,8 0 0,0
19.06.2018 05:00:00 18,6 13,0 15,3 20,8 21,6 16,5 6 3 19 11 SW 1019,2 0 0,0
19.06.2018 04:00:00 19,7 13,3 17,5 21,2 21,8 16,5 12 6 25 14 W 1019,3 0 0,0
19.06.2018 03:00:00 19,7 12,5 18,6 21,4 22,0 16,5 10 6 16 9 W 1019,3 0 0,0
19.06.2018 02:00:00 19,6 12,0 18,1 21,7 22,2 16,5 8 4 15 8 WSW 1019,4 0 0,0
19.06.2018 01:00:00 19,9 11,9 15,5 22,3 22,4 16,5 7 4 13 7 SSW 1019,3 0 0,0
19.06.2018 00:00:00 20,8 12,1 18,2 23,0 22,6 16,5 7 4 10 6 SSW 1019,6 0 0,0
18.06.2018 23:00:00 21,1 12,1 15,1 23,9 22,8 16,5 5 3 13 7 SW 1019,5 0 0,0
18.06.2018 22:00:00 21,5 11,8 17,7 25,0 22,9 16,5 8 4 24 13 W 1019,2 0 0,0
18.06.2018 21:00:00 22,9 11,5 22,5 26,1 22,9 16,5 16 9 29 16 W 1018,7 14 0,0
18.06.2018 20:00:00 23,4 10,7 24,0 27,1 22,9 16,5 13 7 25 14 W 1018,6 0 0,0
18.06.2018 19:00:00 23,8 9,2 25,2 28,1 22,8 16,5 12 7 25 14 WSW 1018,8 0 0,0
18.06.2018 18:00:00 23,4 8,7 25,7 29,4 22,6 16,5 14 8 29 16 W 1019,0 0 0,0
18.06.2018 17:00:00 23,9 8,4 29,2 30,2 22,3 16,5 12 7 29 16 WSW 1019,0 18 0,0
18.06.2018 16:00:00 24,1 8,5 33,0 29,7 21,9 16,5 16 9 32 18 W 1019,4 10 0,0
18.06.2018 15:00:00 23,1 8,4 29,7 29,8 21,5 16,5 17 9 35 19 WSW 1019,5 27 0,0
18.06.2018 14:00:00 22,8 9,5 29,1 29,2 21,1 16,5 13 7 27 15 WSW 1019,8 18 0,0
18.06.2018 13:00:00 22,9 9,4 31,6 27,5 20,8 16,5 16 8 25 13 WNW 1020,0 42 0,0
18.06.2018 12:00:00 21,9 10,2 30,0 24,9 20,6 16,5 14 7 27 14 WSW 1020,1 35 0,0
18.06.2018 11:00:00 20,9 11,0 27,7 22,3 20,5 16,5 10 5 18 10 W 1020,1 0 0,0
18.06.2018 10:00:00 20,0 10,0 22,5 21,3 20,5 16,5 8 5 16 9 W 1020,1 22 0,0
18.06.2018 09:00:00 19,1 10,7 21,9 19,9 20,6 16,5 8 5 14 7 W 1019,8 0 0,0
18.06.2018 08:00:00 18,6 10,1 19,3 19,3 20,8 16,4 6 4 10 5 WNW 1019,5 6 0,0
18.06.2018 07:00:00 17,7 10,0 19,8 18,6 21,0 16,4 5 3 8 5 WNW 1019,0 60 0,0
18.06.2018 06:00:00 15,4 9,1 12,0 18,7 21,3 16,4 5 3 15 8 WNW 1018,9 25 0,0
18.06.2018 05:00:00 15,1 8,5 11,5 19,1 21,6 16,4 10 5 14 8 W 1018,8 0 0,0
18.06.2018 04:00:00 15,5 8,5 11,8 19,6 21,9 16,4 10 5 16 8 W 1018,5 0 0,0
18.06.2018 03:00:00 16,1 8,2 11,6 20,3 22,3 16,4 10 5 17 9 W 1018,3 0 0,0
18.06.2018 02:00:00 17,5 7,7 13,5 21,0 22,6 16,4 11 6 18 10 W 1018,3 0 0,0
18.06.2018 01:00:00 18,0 7,6 12,7 21,8 22,9 16,4 9 5 14 8 W 1018,1 0 0,0
18.06.2018 00:00:00 18,4 7,0 9,4 22,9 23,2 16,4 7 4 16 8 W 1017,7 0 0,0
17.06.2018 23:00:00 19,1 6,4 13,8 24,2 23,4 16,4 10 5 27 14 WNW 1017,4 0 0,0
17.06.2018 22:00:00 20,8 6,9 18,7 25,5 23,7 16,4 17 9 26 14 NW 1017,1 0 0,0
17.06.2018 21:00:00 21,6 7,1 20,0 26,9 23,8 16,4 16 9 34 19 NW 1016,6 18 0,0
17.06.2018 20:00:00 22,9 7,1 22,0 28,5 23,8 16,4 16 9 33 18 NW 1015,9 28 0,0
17.06.2018 19:00:00 24,3 8,1 25,4 30,3 23,6 16,4 21 11 35 19 W 1015,4 20 0,0
17.06.2018 18:00:00 25,7 8,9 29,6 32,0 23,4 16,4 26 14 39 21 WNW 1014,8 53 0,0
17.06.2018 17:00:00 26,1 9,2 30,4 32,8 22,9 16,4 26 14 42 23 WNW 1014,6 38 0,0
17.06.2018 16:00:00 26,5 11,1 33,5 32,9 22,5 16,4 21 12 42 23 W 1014,4 57 0,0
17.06.2018 15:00:00 26,0 12,3 33,3 31,4 22,1 16,4 23 12 36 19 W 1014,4 54 0,0
17.06.2018 14:00:00 24,7 13,0 28,5 30,4 21,6 16,4 22 12 34 19 WNW 1014,5 30 0,0
17.06.2018 13:00:00 24,7 13,4 28,8 29,8 21,2 16,4 16 9 30 16 NW 1014,5 34 0,0
17.06.2018 12:00:00 25,5 13,5 34,0 27,7 20,8 16,4 17 9 29 16 W 1014,6 56 0,0
17.06.2018 11:00:00 24,9 13,7 29,7 25,3 20,6 16,4 18 10 31 17 W 1014,6 57 0,0
17.06.2018 10:00:00 24,1 12,8 28,7 22,8 20,6 16,4 19 10 29 16 W 1014,5 60 0,0
17.06.2018 09:00:00 23,0 12,5 26,7 20,9 20,6 16,4 10 6 20 11 WNW 1014,0 60 0,0
17.06.2018 08:00:00 21,2 11,9 22,9 20,0 20,8 16,4 9 5 16 9 WSW 1013,9 42 0,0
17.06.2018 07:00:00 19,8 12,5 19,4 19,6 21,0 16,4 7 4 14 8 S 1013,5 60 0,0
17.06.2018 06:00:00 18,7 11,7 13,5 19,8 21,3 16,4 5 3 12 7 S 1013,5 13 0,0
17.06.2018 05:00:00 18,7 11,4 12,1 20,4 21,5 16,4 6 3 12 6 SSE 1013,6 0 0,0
17.06.2018 04:00:00 19,5 11,6 12,3 21,2 21,7 16,4 6 3 14 8 SSE 1013,7 0 0,0
17.06.2018 03:00:00 20,4 11,5 17,2 21,8 21,9 16,4 5 3 15 8 SSE 1013,9 0 0,0
17.06.2018 02:00:00 21,2 11,0 18,0 22,2 22,1 16,4 4 2 13 7 S 1013,9 0 0,0
17.06.2018 01:00:00 21,7 11,0 18,5 22,7 22,3 16,4 6 3 10 5 S 1014,1 0 0,0
17.06.2018 00:00:00 22,2 11,2 16,9 23,5 22,5 16,4 6 4 13 7 S 1014,0 0 0,0
16.06.2018 23:00:00 23,2 11,3 20,4 24,4 22,6 16,4 9 5 18 10 SSE 1014,0 0 0,0
16.06.2018 22:00:00 24,5 11,0 22,6 25,2 22,7 16,4 8 4 13 7 SE 1013,9 0 0,0
16.06.2018 21:00:00 24,9 10,6 23,2 26,2 22,8 16,4 7 4 16 9 SE 1013,7 0 0,0
16.06.2018 20:00:00 25,5 10,8 24,9 27,5 22,7 16,4 10 6 19 10 SSE 1013,7 10 0,0
16.06.2018 19:00:00 26,5 10,3 28,7 28,6 22,6 16,4 9 5 20 11 S 1013,7 33 0,0
16.06.2018 18:00:00 26,5 10,5 29,7 29,1 22,4 16,4 12 7 23 13 SSE 1013,9 25 0,0
16.06.2018 17:00:00 25,9 10,5 29,7 29,7 22,1 16,4 9 5 23 12 SSE 1014,4 31 0,0
16.06.2018 16:00:00 26,2 11,0 33,0 29,1 21,8 16,4 11 6 19 10 S 1014,8 11 0,0
16.06.2018 15:00:00 25,3 11,2 28,2 30,0 21,3 16,4 11 6 26 14 SSE 1015,1 3 0,0
16.06.2018 14:00:00 26,5 9,8 35,5 30,5 20,8 16,4 9 5 27 14 SE 1015,6 32 0,0
16.06.2018 13:00:00 26,4 11,0 37,4 28,3 20,3 16,4 14 7 24 13 ESE 1016,1 41 0,0
16.06.2018 12:00:00 25,1 11,1 36,4 25,7 20,0 16,4 12 7 24 13 S 1016,8 47 0,0
16.06.2018 11:00:00 23,5 12,4 30,8 23,3 19,8 16,4 10 5 18 10 S 1017,0 28 0,0
16.06.2018 10:00:00 22,1 13,7 27,7 21,4 19,7 16,4 8 4 15 8 SSE 1017,1 0 0,0
16.06.2018 09:00:00 20,7 13,6 24,4 20,4 19,7 16,4 7 4 12 7 S 1017,2 0 0,0
16.06.2018 08:00:00 19,8 13,4 21,9 19,5 19,8 16,4 4 2 11 6 SSE 1017,2 0 0,0
16.06.2018 07:00:00 18,3 12,9 18,7 19,1 19,9 16,4 4 2 8 4 SE 1017,2 0 0,0
16.06.2018 06:00:00 17,3 13,1 15,6 19,0 20,1 16,4 0 0 8 5 N 1017,3 0 0,0
16.06.2018 05:00:00 17,9 12,8 15,6 19,2 20,2 16,4 5 3 9 5 SSE 1017,3 0 0,0
16.06.2018 04:00:00 17,7 12,6 13,7 19,6 20,4 16,4 8 4 10 5 ESE 1017,4 0 0,0
16.06.2018 03:00:00 18,2 12,9 15,1 20,0 20,5 16,4 3 2 12 7 SE 1017,5 0 0,0
16.06.2018 02:00:00 18,9 12,9 17,1 20,2 20,7 16,4 6 4 13 7 S 1017,4 0 0,0
16.06.2018 01:00:00 19,0 12,5 15,7 20,6 20,8 16,4 4 2 10 5 SE 1017,4 0 0,0
16.06.2018 00:00:00 19,2 12,2 15,6 21,0 21,0 16,4 4 2 7 4 SE 1017,3 0 0,0
15.06.2018 23:00:00 19,7 12,3 16,0 21,6 21,1 16,4 3 2 5 3 SSE 1017,2 0 0,0

tt = temperature
td = dewpoint
tt 5cm = temperature 5cm
tt -5cm = temperature -5cm
tt -20cm = temperature -20cm
tt -100cm = temperature -100cm
ff = wind speed
fx = gusts
dd = wind direction
ppp = reduced air pressure
sd = sunshine duration
rr = precipitation

Next stations